Time;durP1;ratioP1;P1;durP2;ratioP2;P2;SDS_P1;SDS_P2;PMS_P1;PMS_P2;Temp;Humidity;BMP_temperature;BMP_pressure;BME280_temperature;BME280_humidity;BME280_pressure;Samples;Min_cycle;Max_cycle;Signal;HPM_P1;HPM_P2
2023/05/26 00:00:09;;;;;;;24.00;7.50;;;;;;;8.46;75.55;102231.50;839773;23;1320;-79
2023/05/26 00:00:32;;;;;;;21.23;6.97;;;;;;;8.44;75.51;102235.72;839899;23;1791;-78
2023/05/26 00:00:53;;;;;;;19.52;6.60;;;;;;;8.50;74.96;102244.78;839802;23;1224;-79
2023/05/26 00:01:16;;;;;;;19.73;6.60;;;;;;;8.40;75.40;102229.44;841579;23;970;-78
2023/05/26 00:01:37;;;;;;;22.85;7.35;;;;;;;8.53;75.18;102245.81;839795;23;918;-79
2023/05/26 00:01:57;;;;;;;22.10;7.00;;;;;;;8.45;75.22;102230.63;837589;23;708;-79
2023/05/26 00:02:20;;;;;;;21.58;7.13;;;;;;;8.44;75.32;102231.44;835948;23;1171;-79
2023/05/26 00:02:42;;;;;;;21.65;6.80;;;;;;;8.53;75.06;102248.41;839711;23;1172;-79
2023/05/26 00:03:03;;;;;;;25.50;7.30;;;;;;;8.41;74.83;102228.63;840211;23;1373;-79
2023/05/26 00:03:27;;;;;;;23.40;6.90;;;;;;;8.45;75.33;102241.03;841571;23;720;-79
2023/05/26 00:03:48;;;;;;;21.00;6.68;;;;;;;8.46;75.23;102236.69;837179;23;1024;-79
2023/05/26 00:04:12;;;;;;;19.90;6.50;;;;;;;8.44;75.23;102234.03;837639;23;994;-80
2023/05/26 00:04:32;;;;;;;22.23;6.80;;;;;;;8.45;74.88;102241.03;837380;23;1100;-78
2023/05/26 00:04:58;;;;;;;18.80;6.70;;;;;;;8.43;74.75;102232.25;837249;23;954;-78
2023/05/26 00:05:20;;;;;;;20.45;6.18;;;;;;;8.44;74.77;102233.13;841444;23;1183;-78
2023/05/26 00:05:41;;;;;;;19.27;6.25;;;;;;;8.45;75.12;102243.63;841044;23;1049;-79
2023/05/26 00:06:03;;;;;;;19.35;6.65;;;;;;;8.42;74.99;102235.63;840067;23;1246;-79
2023/05/26 00:06:24;;;;;;;18.38;7.32;;;;;;;8.48;75.04;102248.13;841383;23;822;-79
2023/05/26 00:06:46;;;;;;;19.98;7.47;;;;;;;8.43;75.34;102240.03;839118;23;1408;-79
2023/05/26 00:07:06;;;;;;;20.58;7.53;;;;;;;8.41;75.24;102232.94;843484;23;1234;-79
2023/05/26 00:07:27;;;;;;;20.85;7.38;;;;;;;8.48;75.10;102242.94;843176;23;1165;-79
2023/05/26 00:07:48;;;;;;;20.37;7.67;;;;;;;8.42;74.96;102242.53;835587;23;1097;-79
2023/05/26 00:08:09;;;;;;;20.50;7.78;;;;;;;8.42;74.81;102237.34;841413;23;1047;-79
2023/05/26 00:08:30;;;;;;;21.05;7.32;;;;;;;8.39;74.97;102237.13;841290;23;1031;-79
2023/05/26 00:08:51;;;;;;;21.27;6.93;;;;;;;8.41;75.36;102240.75;839762;23;1141;-79
2023/05/26 00:09:12;;;;;;;20.77;6.80;;;;;;;8.37;75.07;102242.28;841261;23;929;-79
2023/05/26 00:09:33;;;;;;;23.55;6.97;;;;;;;8.41;75.03;102246.84;835166;23;1226;-79
2023/05/26 00:09:54;;;;;;;23.50;6.97;;;;;;;8.33;74.94;102229.88;835936;23;1301;-79
2023/05/26 00:10:15;;;;;;;22.85;6.95;;;;;;;8.45;75.37;102258.31;836207;23;1418;-79
2023/05/26 00:10:36;;;;;;;20.25;6.70;;;;;;;8.38;74.92;102241.47;835812;23;1375;-79
2023/05/26 00:10:56;;;;;;;18.52;6.97;;;;;;;8.33;75.01;102241.19;839167;23;1201;-79
2023/05/26 00:11:17;;;;;;;20.70;7.27;;;;;;;8.38;75.10;102251.88;844103;23;1245;-79
2023/05/26 00:11:38;;;;;;;19.83;7.38;;;;;;;8.30;75.44;102234.91;845312;23;1013;-79
2023/05/26 00:11:59;;;;;;;21.92;7.15;;;;;;;8.30;75.23;102230.56;841539;23;841;-79
2023/05/26 00:12:20;;;;;;;19.73;6.80;;;;;;;8.32;75.49;102234.19;843948;23;1280;-79
2023/05/26 00:12:41;;;;;;;20.92;6.65;;;;;;;8.36;75.26;102245.69;843796;23;1349;-79
2023/05/26 00:13:02;;;;;;;19.30;6.33;;;;;;;8.36;75.53;102248.28;845614;23;1102;-79
2023/05/26 00:13:23;;;;;;;18.50;6.50;;;;;;;8.28;75.29;102242.59;845456;23;935;-79
2023/05/26 00:13:44;;;;;;;19.63;6.60;;;;;;;8.33;75.35;102245.47;845167;23;910;-79
2023/05/26 00:14:05;;;;;;;20.45;6.50;;;;;;;8.28;75.49;102239.13;839112;23;1388;-79
2023/05/26 00:14:25;;;;;;;21.25;6.60;;;;;;;8.29;75.25;102243.50;836095;23;1292;-79
2023/05/26 00:14:46;;;;;;;20.00;6.35;;;;;;;8.31;75.33;102252.28;831749;23;1097;-79
2023/05/26 00:15:08;;;;;;;19.92;6.63;;;;;;;8.27;75.30;102245.09;833735;23;971;-79
2023/05/26 00:15:29;;;;;;;19.40;6.60;;;;;;;8.23;75.67;102234.50;833406;23;865;-79
2023/05/26 00:15:50;;;;;;;23.25;7.40;;;;;;;8.27;75.44;102245.09;839774;23;1257;-79
2023/05/26 00:16:10;;;;;;;23.03;7.30;;;;;;;8.27;75.89;102240.81;839922;23;1263;-79
2023/05/26 00:16:31;;;;;;;22.88;7.45;;;;;;;8.21;75.47;102236.13;840110;23;1220;-79
2023/05/26 00:16:53;;;;;;;20.40;7.00;;;;;;;8.23;75.29;102244.91;836551;23;1068;-80
2023/05/26 00:17:16;;;;;;;19.23;6.60;;;;;;;8.30;75.81;102253.97;844000;23;1291;-80
2023/05/26 00:17:37;;;;;;;18.52;7.10;;;;;;;8.29;75.74;102253.91;845004;23;1078;-81
2023/05/26 00:17:57;;;;;;;18.35;7.30;;;;;;;8.28;75.69;102252.13;845481;23;790;-79
2023/05/26 00:18:19;;;;;;;21.02;7.28;;;;;;;8.27;75.78;102251.22;841240;23;1099;-80
2023/05/26 00:18:40;;;;;;;26.25;7.35;;;;;;;8.27;75.82;102256.41;845060;23;981;-80
2023/05/26 00:19:00;;;;;;;24.85;6.80;;;;;;;8.18;75.44;102220.31;842412;23;1921;-80
2023/05/26 00:19:21;;;;;;;22.98;6.50;;;;;;;8.17;75.53;102228.94;841543;23;1086;-79
2023/05/26 00:19:45;;;;;;;23.25;6.90;;;;;;;8.20;75.96;102231.75;839614;23;1051;-78
2023/05/26 00:20:07;;;;;;;25.50;7.30;;;;;;;8.25;75.81;102241.50;836112;23;1237;-79
2023/05/26 00:20:28;;;;;;;21.70;7.03;;;;;;;8.26;75.23;102243.31;837529;23;787;-79
2023/05/26 00:20:49;;;;;;;23.80;6.85;;;;;;;8.24;75.51;102245.81;835690;23;1342;-79
2023/05/26 00:21:09;;;;;;;25.85;7.32;;;;;;;8.17;75.42;102233.25;837418;23;1069;-79
2023/05/26 00:21:30;;;;;;;26.80;7.80;;;;;;;8.20;75.72;102239.53;832019;23;1420;-80
2023/05/26 00:21:51;;;;;;;23.30;7.30;;;;;;;8.21;76.00;102241.34;832006;23;1183;-81
2023/05/26 00:22:14;;;;;;;20.60;6.70;;;;;;;8.14;75.33;102239.16;833445;23;952;-79
2023/05/26 00:22:38;;;;;;;20.15;6.47;;;;;;;8.14;75.64;102244.34;837543;23;928;-79
2023/05/26 00:22:59;;;;;;;20.00;6.57;;;;;;;8.14;75.62;102249.56;839266;23;1415;-80
2023/05/26 00:23:20;;;;;;;20.45;6.50;;;;;;;8.09;75.52;102237.97;835995;23;1370;-80
2023/05/26 00:23:40;;;;;;;21.55;6.80;;;;;;;8.15;75.85;102256.56;834273;23;1040;-79
2023/05/26 00:24:01;;;;;;;20.50;6.60;;;;;;;8.05;75.66;102233.38;836120;23;1122;-80
2023/05/26 00:24:22;;;;;;;21.10;6.78;;;;;;;8.04;75.63;102231.59;837436;23;854;-80
2023/05/26 00:24:44;;;;;;;21.92;6.60;;;;;;;8.05;75.52;102236.88;836938;23;1488;-79
2023/05/26 00:25:05;;;;;;;21.35;6.80;;;;;;;8.00;76.07;102235.72;835950;23;1089;-79
2023/05/26 00:25:26;;;;;;;21.70;7.43;;;;;;;8.04;75.89;102242.00;836393;23;1228;-79
2023/05/26 00:25:48;;;;;;;21.25;7.40;;;;;;;8.07;75.58;102242.19;831532;23;1041;-79
2023/05/26 00:26:09;;;;;;;21.85;7.32;;;;;;;8.01;75.82;102241.78;831585;23;1105;-80
2023/05/26 00:26:31;;;;;;;21.13;6.53;;;;;;;7.97;76.30;102234.63;839925;23;1435;-80
2023/05/26 00:26:53;;;;;;;23.38;7.10;;;;;;;7.97;75.90;102232.00;843105;23;1279;-79
2023/05/26 00:27:14;;;;;;;22.90;7.10;;;;;;;8.04;76.12;102247.19;845479;23;1067;-79
2023/05/26 00:27:36;;;;;;;20.90;7.28;;;;;;;7.92;76.13;102227.41;835755;23;1368;-79
2023/05/26 00:27:56;;;;;;;19.77;7.20;;;;;;;7.95;76.09;102234.50;835542;23;1008;-79
2023/05/26 00:28:17;;;;;;;17.20;6.80;;;;;;;8.01;76.20;102247.91;837469;23;1104;-80
2023/05/26 00:28:38;;;;;;;21.88;6.72;;;;;;;7.96;76.40;102233.72;835759;23;985;-79
2023/05/26 00:29:00;;;;;;;23.58;6.90;;;;;;;8.00;76.18;102250.41;841437;23;700;-79
2023/05/26 00:29:22;;;;;;;22.42;6.90;;;;;;;7.88;76.12;102230.63;835954;23;1451;-79
2023/05/26 00:29:43;;;;;;;19.85;6.45;;;;;;;7.90;76.20;102234.22;841099;23;990;-79
2023/05/26 00:30:04;;;;;;;18.45;6.43;;;;;;;7.86;76.15;102232.22;835948;23;1269;-79
2023/05/26 00:30:25;;;;;;;18.05;6.15;;;;;;;7.89;76.29;102236.72;834829;23;1342;-79
2023/05/26 00:30:46;;;;;;;20.77;6.32;;;;;;;7.95;75.98;102238.03;835510;23;1248;-79
2023/05/26 00:31:06;;;;;;;22.55;6.30;;;;;;;7.98;75.77;102232.09;837363;23;1061;-79
2023/05/26 00:31:29;;;;;;;24.67;6.72;;;;;;;8.06;76.07;102246.47;837327;23;820;-78
2023/05/26 00:31:51;;;;;;;22.60;6.43;;;;;;;8.02;75.66;102235.78;831742;23;993;-79
2023/05/26 00:32:13;;;;;;;18.42;6.20;;;;;;;7.99;75.78;102230.41;835524;23;1109;-79
2023/05/26 00:32:34;;;;;;;17.88;6.00;;;;;;;8.09;75.55;102250.97;833350;23;886;-79
2023/05/26 00:32:57;;;;;;;17.83;5.82;;;;;;;8.10;75.63;102255.34;831153;23;1061;-79
2023/05/26 00:33:18;;;;;;;17.58;5.70;;;;;;;8.02;75.74;102238.38;835727;23;1762;-79
2023/05/26 00:33:39;;;;;;;21.67;6.32;;;;;;;8.02;75.97;102244.50;836890;23;989;-79
2023/05/26 00:34:00;;;;;;;22.95;6.57;;;;;;;7.99;75.87;102233.00;837576;23;743;-79
2023/05/26 00:34:21;;;;;;;27.35;6.78;;;;;;;7.99;75.54;102238.19;835852;23;1300;-80
2023/05/26 00:34:42;;;;;;;23.90;6.20;;;;;;;8.00;75.65;102242.59;832613;23;1258;-79
2023/05/26 00:35:02;;;;;;;22.10;6.50;;;;;;;8.03;75.60;102245.38;837257;23;980;-79
2023/05/26 00:35:23;;;;;;;20.13;6.43;;;;;;;8.02;76.00;102249.69;837518;23;759;-79
2023/05/26 00:35:44;;;;;;;23.02;6.90;;;;;;;7.99;75.64;102244.28;834721;23;1114;-81
2023/05/26 00:36:05;;;;;;;23.88;6.43;;;;;;;8.05;75.90;102257.66;840149;23;1161;-79
2023/05/26 00:36:26;;;;;;;23.15;6.50;;;;;;;7.94;76.29;102246.59;835628;23;999;-79
2023/05/26 00:36:47;;;;;;;22.60;6.20;;;;;;;8.05;75.97;102269.78;832575;23;1128;-79
2023/05/26 00:37:07;;;;;;;22.05;6.90;;;;;;;7.98;76.24;102246.81;833583;23;993;-79
2023/05/26 00:37:28;;;;;;;22.73;7.18;;;;;;;7.95;76.12;102248.44;831746;23;1262;-79
2023/05/26 00:37:49;;;;;;;23.90;7.38;;;;;;;8.01;76.27;102252.19;837157;23;1011;-80
2023/05/26 00:38:10;;;;;;;28.52;7.20;;;;;;;7.93;75.72;102239.59;836106;23;1135;-80
2023/05/26 00:38:30;;;;;;;26.30;7.27;;;;;;;7.98;75.83;102257.22;831985;23;1008;-79
2023/05/26 00:38:51;;;;;;;25.15;7.38;;;;;;;7.99;76.24;102259.00;839654;23;1897;-79
2023/05/26 00:39:12;;;;;;;19.77;7.10;;;;;;;7.91;76.18;102245.50;841288;23;953;-80
2023/05/26 00:39:35;;;;;;;19.70;6.90;;;;;;;8.00;76.29;102258.19;841340;23;934;-79
2023/05/26 00:39:56;;;;;;;20.55;7.35;;;;;;;7.92;76.21;102253.41;839442;23;1279;-81
2023/05/26 00:40:17;;;;;;;21.27;7.57;;;;;;;7.91;76.12;102249.00;839998;23;1316;-79
2023/05/26 00:40:39;;;;;;;24.77;7.72;;;;;;;7.90;76.34;102249.81;838688;23;1157;-79
2023/05/26 00:41:00;;;;;;;22.67;7.20;;;;;;;7.92;76.40;102252.53;837391;23;831;-80
2023/05/26 00:41:21;;;;;;;27.23;7.10;;;;;;;7.92;76.40;102256.00;835890;23;1289;-80
2023/05/26 00:41:42;;;;;;;24.58;7.07;;;;;;;7.91;76.36;102251.63;839228;23;1223;-80
2023/05/26 00:42:03;;;;;;;24.50;7.10;;;;;;;7.89;76.40;102248.03;839947;23;1332;-79
2023/05/26 00:42:24;;;;;;;19.95;6.60;;;;;;;7.88;76.16;102248.84;843913;23;1376;-80
2023/05/26 00:42:46;;;;;;;20.80;6.65;;;;;;;7.90;76.54;102249.81;831749;23;1354;-80
2023/05/26 00:43:07;;;;;;;20.67;6.50;;;;;;;7.93;76.13;102260.41;836029;23;1174;-80
2023/05/26 00:43:27;;;;;;;21.38;6.97;;;;;;;7.88;76.28;102254.03;831998;23;1307;-79
2023/05/26 00:43:48;;;;;;;20.90;7.30;;;;;;;7.93;75.96;102259.53;837059;23;1023;-79
2023/05/26 00:44:09;;;;;;;19.25;7.63;;;;;;;7.94;76.53;102264.78;832012;23;1314;-79
2023/05/26 00:44:30;;;;;;;17.45;7.20;;;;;;;7.81;76.09;102244.94;833416;23;1040;-79
2023/05/26 00:44:51;;;;;;;18.80;7.47;;;;;;;7.90;76.11;102259.31;837140;23;1084;-79
2023/05/26 00:45:13;;;;;;;20.38;7.20;;;;;;;7.79;76.36;102245.63;837562;23;1148;-79
2023/05/26 00:45:36;;;;;;;20.80;7.45;;;;;;;7.78;76.43;102254.22;835562;23;1240;-80
2023/05/26 00:45:57;;;;;;;16.48;6.68;;;;;;;7.80;76.41;102242.25;835311;23;1660;-80
2023/05/26 00:46:17;;;;;;;16.40;6.68;;;;;;;7.82;75.86;102259.72;835943;23;1258;-80
2023/05/26 00:46:38;;;;;;;17.77;6.43;;;;;;;7.77;76.58;102247.25;838925;23;1129;-79
2023/05/26 00:46:59;;;;;;;19.92;6.63;;;;;;;7.82;76.57;102261.44;835055;23;1054;-79
2023/05/26 00:47:19;;;;;;;23.70;6.97;;;;;;;7.66;76.46;102238.75;837464;23;1168;-80
2023/05/26 00:47:40;;;;;;;23.88;7.10;;;;;;;7.76;76.38;102264.56;834818;23;1264;-79
2023/05/26 00:48:01;;;;;;;25.05;7.40;;;;;;;7.73;76.61;102256.53;840023;23;1054;-79
2023/05/26 00:48:22;;;;;;;22.17;7.50;;;;;;;7.70;76.79;102252.84;839824;23;1249;-79
2023/05/26 00:48:45;;;;;;;19.00;7.32;;;;;;;7.68;76.58;102242.38;836776;23;1046;-79
2023/05/26 00:49:05;;;;;;;18.00;7.20;;;;;;;7.62;76.18;102242.84;839647;23;1159;-79
2023/05/26 00:49:26;;;;;;;17.35;6.55;;;;;;;7.59;76.68;102237.47;835445;23;1405;-79
2023/05/26 00:49:48;;;;;;;19.60;6.47;;;;;;;7.70;76.60;102245.06;833444;23;1015;-79
2023/05/26 00:50:12;;;;;;;18.42;6.40;;;;;;;7.64;76.59;102242.97;833970;23;1185;-79
2023/05/26 00:50:34;;;;;;;21.55;6.75;;;;;;;7.68;76.42;102253.66;840296;23;1281;-80
2023/05/26 00:50:55;;;;;;;18.58;6.50;;;;;;;7.66;76.56;102254.34;841361;23;972;-80
2023/05/26 00:51:16;;;;;;;18.30;6.63;;;;;;;7.59;76.66;102239.16;839796;23;1184;-80
2023/05/26 00:51:39;;;;;;;17.80;6.80;;;;;;;7.58;76.09;102246.09;835650;23;1261;-78
2023/05/26 00:51:59;;;;;;;22.27;7.55;;;;;;;7.57;76.38;102239.09;831111;23;1529;-79
2023/05/26 00:52:21;;;;;;;22.67;7.33;;;;;;;7.65;76.80;102249.97;835899;23;1263;-80
2023/05/26 00:52:43;;;;;;;25.02;7.20;;;;;;;7.57;76.67;102244.28;841239;23;1040;-79
2023/05/26 00:53:04;;;;;;;24.35;6.97;;;;;;;7.55;76.46;102240.66;836036;23;1246;-79
2023/05/26 00:53:25;;;;;;;26.55;7.38;;;;;;;7.62;76.68;102255.84;841518;23;760;-79
2023/05/26 00:53:46;;;;;;;21.17;7.07;;;;;;;7.52;77.13;102237.88;835213;23;1137;-80
2023/05/26 00:54:09;;;;;;;23.93;7.20;;;;;;;7.62;76.89;102254.97;836001;23;1062;-79
2023/05/26 00:54:30;;;;;;;22.05;6.90;;;;;;;7.57;77.01;102240.78;841234;23;935;-79
2023/05/26 00:54:53;;;;;;;22.73;6.80;;;;;;;7.64;76.60;102251.69;841288;23;993;-79
2023/05/26 00:55:14;;;;;;;21.23;6.80;;;;;;;7.60;76.86;102244.47;840019;23;1429;-80
2023/05/26 00:55:35;;;;;;;20.52;6.90;;;;;;;7.60;76.91;102243.56;839717;23;1417;-79
2023/05/26 00:55:56;;;;;;;22.85;6.97;;;;;;;7.67;76.72;102257.06;832068;23;995;-79
2023/05/26 00:56:17;;;;;;;23.75;6.85;;;;;;;7.64;76.58;102251.69;835950;23;1134;-79
2023/05/26 00:56:38;;;;;;;23.08;6.97;;;;;;;7.59;76.54;102244.38;835574;23;1343;-79
2023/05/26 00:56:59;;;;;;;22.48;7.20;;;;;;;7.65;76.65;102255.16;838820;23;1356;-79
2023/05/26 00:57:20;;;;;;;25.35;7.60;;;;;;;7.61;76.84;102243.66;843923;23;1236;-79
2023/05/26 00:57:41;;;;;;;24.67;7.40;;;;;;;7.67;76.82;102251.88;845031;23;1036;-81
2023/05/26 00:58:02;;;;;;;23.13;7.40;;;;;;;7.60;76.94;102239.28;839861;23;1068;-81
2023/05/26 00:58:24;;;;;;;20.48;7.63;;;;;;;7.66;76.56;102254.34;839551;23;1234;-80
2023/05/26 00:58:45;;;;;;;24.45;8.25;;;;;;;7.67;76.85;102259.66;840938;23;1108;-79
2023/05/26 00:59:06;;;;;;;26.35;8.43;;;;;;;7.62;76.51;102247.19;839622;23;1905;-80
2023/05/26 00:59:27;;;;;;;24.02;7.55;;;;;;;7.61;76.61;102246.25;841418;23;833;-80
2023/05/26 00:59:49;;;;;;;20.60;7.22;;;;;;;7.62;76.96;102253.25;835459;23;1173;-79
2023/05/26 01:00:24;;;;;;;24.10;7.40;;;;;;;7.57;76.53;102244.28;844403;23;1495;-79
2023/05/26 01:00:44;;;;;;;22.00;7.13;;;;;;;7.54;76.93;102251.88;841978;23;1186;-80
2023/05/26 01:01:05;;;;;;;23.88;7.00;;;;;;;7.51;76.76;102249.09;849411;23;1083;-79
2023/05/26 01:01:26;;;;;;;26.35;7.18;;;;;;;7.56;77.15;102270.16;843938;23;1113;-80
2023/05/26 01:01:49;;;;;;;24.88;6.80;;;;;;;7.46;77.31;102246.19;841068;23;1000;-79
2023/05/26 01:02:12;;;;;;;24.13;7.97;;;;;;;7.48;77.43;102251.47;839877;23;1063;-79
2023/05/26 01:02:32;;;;;;;24.30;8.20;;;;;;;7.42;78.04;102239.00;837241;23;989;-79
2023/05/26 01:02:56;;;;;;;26.17;7.73;;;;;;;7.47;77.67;102252.28;839903;23;1293;-79
2023/05/26 01:03:18;;;;;;;25.63;7.40;;;;;;;7.44;77.49;102254.69;839987;23;1322;-79
2023/05/26 01:03:39;;;;;;;25.60;7.55;;;;;;;7.46;77.95;102247.88;841118;23;1063;-79
2023/05/26 01:04:00;;;;;;;27.35;8.18;;;;;;;7.36;77.99;102234.31;840391;23;1449;-79
2023/05/26 01:04:21;;;;;;;27.52;8.00;;;;;;;7.43;78.18;102245.97;839852;23;1209;-79
2023/05/26 01:04:42;;;;;;;26.40;7.88;;;;;;;7.45;77.95;102253.88;837061;23;1094;-80
2023/05/26 01:05:04;;;;;;;22.27;7.17;;;;;;;7.40;78.11;102251.91;837525;23;1001;-79
2023/05/26 01:05:25;;;;;;;23.67;6.78;;;;;;;7.44;78.11;102250.41;841356;23;846;-79
2023/05/26 01:05:46;;;;;;;23.05;6.90;;;;;;;7.46;78.10;102258.28;839139;23;1278;-79
2023/05/26 01:06:07;;;;;;;22.83;6.97;;;;;;;7.51;78.07;102265.56;848057;23;1221;-79
2023/05/26 01:06:28;;;;;;;20.20;7.07;;;;;;;7.42;78.23;102253.69;839021;23;1288;-79
2023/05/26 01:06:50;;;;;;;24.45;7.15;;;;;;;7.38;78.08;102248.28;842869;23;1228;-79
2023/05/26 01:07:10;;;;;;;30.13;7.70;;;;;;;7.46;78.22;102260.88;845445;23;1008;-79
2023/05/26 01:07:31;;;;;;;28.93;7.60;;;;;;;7.40;78.14;102261.38;845308;23;1001;-80
2023/05/26 01:07:53;;;;;;;24.05;7.50;;;;;;;7.45;78.09;102265.19;843626;23;1081;-79
2023/05/26 01:08:13;;;;;;;16.50;6.68;;;;;;;7.37;78.12;102256.00;846293;23;972;-79
2023/05/26 01:08:34;;;;;;;14.73;6.60;;;;;;;7.36;78.59;102257.69;850164;23;1011;-80
2023/05/26 01:08:55;;;;;;;16.88;6.97;;;;;;;7.44;78.38;102267.66;849312;23;1109;-79
2023/05/26 01:09:17;;;;;;;21.38;7.78;;;;;;;7.43;78.22;102271.94;839755;23;1286;-79
2023/05/26 01:09:38;;;;;;;22.95;7.63;;;;;;;7.34;78.09;102254.09;839560;23;1209;-79
2023/05/26 01:09:59;;;;;;;22.65;6.97;;;;;;;7.43;78.05;102273.66;845494;23;862;-79
2023/05/26 01:10:23;;;;;;;20.67;6.65;;;;;;;7.32;78.00;102250.50;844002;23;1121;-80
2023/05/26 01:10:45;;;;;;;22.27;6.90;;;;;;;7.43;77.92;102271.06;839631;23;1511;-80
2023/05/26 01:11:16;;;;;;;21.35;6.93;;;;;;;7.32;78.14;102253.09;841457;23;1060;-79
2023/05/26 01:11:46;;;;;;;19.77;7.07;;;;;;;7.27;78.53;102247.56;841131;23;1020;-80
2023/05/26 01:12:18;;;;;;;22.42;7.38;;;;;;;7.33;78.54;102260.09;839980;23;1225;-80
2023/05/26 01:12:49;;;;;;;23.40;7.18;;;;;;;7.26;78.14;102248.38;839613;23;1925;-80
2023/05/26 01:13:20;;;;;;;26.25;6.95;;;;;;;7.25;78.57;102250.91;841406;23;1002;-79
2023/05/26 01:13:52;;;;;;;26.75;7.53;;;;;;;7.26;77.93;102256.16;841178;23;1021;-79
2023/05/26 01:14:20;;;;;;;19.98;6.93;;;;;;;7.36;78.26;102269.75;841401;23;989;-79
2023/05/26 01:14:57;;;;;;;19.08;6.95;;;;;;;7.25;78.32;102253.50;841026;23;1129;-79
2023/05/26 01:15:26;;;;;;;20.58;7.53;;;;;;;7.27;78.72;102257.06;841326;23;985;-79
2023/05/26 01:15:51;;;;;;;23.55;7.53;;;;;;;7.26;78.83;102250.09;847726;23;1199;-79
2023/05/26 01:16:12;;;;;;;24.58;7.30;;;;;;;7.27;78.63;102250.16;847546;23;1227;-79
2023/05/26 01:16:39;;;;;;;26.70;7.70;;;;;;;7.36;78.71;102265.47;843795;23;1313;-79
2023/05/26 01:17:07;;;;;;;24.20;7.20;;;;;;;7.28;78.28;102256.28;838888;23;2048;-79
2023/05/26 01:17:34;;;;;;;22.05;7.00;;;;;;;7.25;78.92;102250.91;841376;23;815;-80
2023/05/26 01:18:28;;;;;;;22.13;6.68;;;;;;;7.37;78.80;102262.06;845898;23;922;-79
2023/05/26 01:18:58;;;;;;;21.67;6.93;;;;;;;7.27;78.93;102254.47;844632;23;1921;-80
2023/05/26 01:19:56;;;;;;;19.55;6.72;;;;;;;7.37;78.56;102271.56;843775;23;1125;-80
2023/05/26 01:20:20;;;;;;;16.15;6.45;;;;;;;7.37;78.49;102267.25;845374;23;918;-80
2023/05/26 01:20:49;;;;;;;18.95;6.63;;;;;;;7.34;78.79;102261.88;843251;23;1094;-80
2023/05/26 01:21:12;;;;;;;22.00;7.45;;;;;;;7.34;78.43;102266.16;845781;23;984;-81
2023/05/26 01:21:36;;;;;;;20.63;7.20;;;;;;;7.24;78.44;102249.97;843982;23;1100;-82
2023/05/26 01:22:13;;;;;;;18.92;7.15;;;;;;;7.21;78.71;102249.78;840006;23;1187;-82
2023/05/26 01:22:47;;;;;;;20.65;7.80;;;;;;;7.33;78.85;102265.28;839586;23;1056;-82
2023/05/26 01:23:40;;;;;;;22.95;7.32;;;;;;;7.31;78.76;102261.66;836459;23;1222;-79
2023/05/26 01:24:28;;;;;;;21.00;6.90;;;;;;;7.24;78.70;102259.47;824039;23;1119;-82
2023/05/26 01:25:14;;;;;;;21.70;7.43;;;;;;;7.18;79.05;102249.56;834370;23;1036;-82
2023/05/26 01:25:56;;;;;;;23.60;7.30;;;;;;;7.29;78.74;102262.38;839667;23;1201;-81
2023/05/26 01:26:35;;;;;;;24.95;7.55;;;;;;;7.29;78.95;102265.88;839849;23;1012;-79
2023/05/26 01:27:04;;;;;;;20.75;7.00;;;;;;;7.18;78.54;102259.06;834314;23;1236;-79
2023/05/26 01:27:59;;;;;;;18.63;7.00;;;;;;;7.25;78.91;102266.47;840654;23;840;-79
2023/05/26 01:28:21;;;;;;;23.17;7.05;;;;;;;7.12;78.53;102246.56;848505;23;1371;-79
2023/05/26 01:28:43;;;;;;;24.73;7.32;;;;;;;7.17;78.53;102254.69;844650;23;961;-79
2023/05/26 01:29:10;;;;;;;24.20;7.60;;;;;;;7.10;79.04;102251.69;839822;23;1218;-79
2023/05/26 01:29:34;;;;;;;22.85;8.13;;;;;;;7.19;78.79;102266.94;844040;23;1316;-79
2023/05/26 01:29:55;;;;;;;24.02;8.20;;;;;;;7.09;79.01;102255.06;838971;23;1243;-79
2023/05/26 01:30:16;;;;;;;22.75;7.90;;;;;;;7.11;78.53;102257.75;839782;23;1225;-79
2023/05/26 01:30:38;;;;;;;23.40;7.20;;;;;;;7.12;79.10;102257.88;834931;23;1261;-81
2023/05/26 01:30:59;;;;;;;22.75;7.40;;;;;;;7.15;78.95;102256.25;841505;23;767;-82
2023/05/26 01:31:20;;;;;;;21.10;7.50;;;;;;;7.13;79.27;102262.25;841090;23;1174;-81
2023/05/26 01:31:41;;;;;;;20.52;7.40;;;;;;;7.09;79.28;102247.28;847522;23;1163;-80
2023/05/26 01:32:07;;;;;;;21.58;6.68;;;;;;;7.09;79.16;102249.88;843827;23;1240;-79
2023/05/26 01:32:28;;;;;;;20.65;6.30;;;;;;;7.09;79.43;102249.88;841306;23;831;-80
2023/05/26 01:32:48;;;;;;;20.40;6.40;;;;;;;7.20;79.44;102270.47;840846;23;1006;-79
2023/05/26 01:33:09;;;;;;;18.05;6.50;;;;;;;7.08;79.58;102250.69;839872;23;1490;-81
2023/05/26 01:33:33;;;;;;;17.65;6.65;;;;;;;7.10;79.31;102250.75;835703;23;1444;-80
2023/05/26 01:33:53;;;;;;;18.52;7.00;;;;;;;7.10;79.55;102254.28;838835;23;1186;-80
2023/05/26 01:34:14;;;;;;;19.30;7.10;;;;;;;7.09;78.77;102251.56;847921;23;1193;-80
2023/05/26 01:34:36;;;;;;;18.85;7.18;;;;;;;7.11;79.41;102255.16;843650;23;1381;-80
2023/05/26 01:34:56;;;;;;;20.50;7.43;;;;;;;7.09;79.32;102255.06;845303;23;857;-79
2023/05/26 01:35:17;;;;;;;22.48;7.75;;;;;;;7.17;79.11;102267.66;839839;23;1137;-80
2023/05/26 01:35:38;;;;;;;22.97;7.67;;;;;;;7.13;79.38;102256.19;843560;23;1279;-79
2023/05/26 01:35:59;;;;;;;22.13;7.25;;;;;;;7.10;79.44;102253.38;841362;23;752;-80
2023/05/26 01:36:23;;;;;;;21.65;7.10;;;;;;;7.10;79.04;102251.69;843907;23;1323;-80
2023/05/26 01:36:44;;;;;;;21.65;7.57;;;;;;;7.05;79.11;102244.41;840412;23;1223;-82
2023/05/26 01:37:05;;;;;;;21.23;8.00;;;;;;;7.13;78.94;102257.06;839843;23;1179;-81
2023/05/26 01:37:25;;;;;;;24.93;7.90;;;;;;;7.06;79.08;102247.06;841361;23;747;-80
2023/05/26 01:37:46;;;;;;;26.00;7.80;;;;;;;7.16;79.57;102265.84;843704;23;1195;-80
2023/05/26 01:38:07;;;;;;;25.63;7.53;;;;;;;7.11;79.02;102258.66;844052;23;1148;-80
2023/05/26 01:38:29;;;;;;;22.73;7.40;;;;;;;7.13;79.18;102267.44;841433;23;899;-81
2023/05/26 01:38:49;;;;;;;21.88;6.90;;;;;;;7.12;79.73;102259.53;839432;23;1905;-80
2023/05/26 01:39:10;;;;;;;21.33;6.80;;;;;;;7.09;79.09;102260.28;841309;23;1053;-80
2023/05/26 01:39:32;;;;;;;25.55;7.38;;;;;;;7.15;79.44;102259.78;849395;23;1253;-80
2023/05/26 01:39:53;;;;;;;27.40;7.35;;;;;;;7.13;79.51;102264.84;843301;23;1255;-81
2023/05/26 01:40:14;;;;;;;25.83;7.65;;;;;;;7.15;79.54;102267.56;845309;23;1071;-80
2023/05/26 01:40:37;;;;;;;23.52;7.53;;;;;;;7.06;79.45;102253.97;845086;23;893;-81
2023/05/26 01:41:10;;;;;;;21.23;7.47;;;;;;;7.08;79.19;102255.88;843085;23;1183;-80
2023/05/26 01:41:53;;;;;;;21.13;7.60;;;;;;;7.13;79.54;102271.75;841183;23;1014;-80
2023/05/26 01:42:27;;;;;;;21.45;7.68;;;;;;;6.98;79.27;102249.16;835860;23;1487;-80
2023/05/26 01:43:25;;;;;;;21.38;7.60;;;;;;;7.10;79.00;102269.84;837341;23;1134;-80
2023/05/26 01:44:18;;;;;;;21.80;6.88;;;;;;;7.07;79.35;102267.03;839442;23;1977;-80
2023/05/26 01:44:48;;;;;;;20.52;7.10;;;;;;;6.94;79.20;102254.94;828740;23;1168;-80
2023/05/26 01:45:24;;;;;;;19.45;6.97;;;;;;;7.03;79.55;102270.25;833287;23;1117;-80
2023/05/26 01:45:59;;;;;;;23.70;7.35;;;;;;;6.99;79.23;102268.22;843561;23;1236;-80
2023/05/26 01:46:33;;;;;;;22.52;7.60;;;;;;;6.98;79.40;102264.75;841197;23;1151;-80
2023/05/26 01:46:53;;;;;;;24.20;7.28;;;;;;;6.96;79.70;102266.34;839087;23;1077;-80
2023/05/26 01:47:15;;;;;;;24.70;7.22;;;;;;;6.90;79.79;102257.22;837534;23;985;-81
2023/05/26 01:47:39;;;;;;;21.23;6.47;;;;;;;6.87;79.63;102249.25;843755;23;1077;-81
2023/05/26 01:48:02;;;;;;;20.08;6.72;;;;;;;6.91;79.29;102259.94;844499;23;1193;-79
2023/05/26 01:48:23;;;;;;;21.33;6.88;;;;;;;6.92;79.27;102261.72;838989;23;1261;-79
2023/05/26 01:48:45;;;;;;;22.17;7.45;;;;;;;6.99;79.60;102276.00;840966;23;1063;-79
2023/05/26 01:49:09;;;;;;;23.30;7.35;;;;;;;6.89;79.70;102264.13;839735;23;1238;-79
2023/05/26 01:49:31;;;;;;;21.42;7.20;;;;;;;6.89;79.30;102258.03;841312;23;992;-79
2023/05/26 01:49:54;;;;;;;22.73;6.88;;;;;;;6.97;79.36;102280.19;841023;23;1051;-79
2023/05/26 01:50:18;;;;;;;19.60;6.60;;;;;;;6.89;79.32;102258.94;840779;23;1363;-80
2023/05/26 01:50:47;;;;;;;18.35;6.47;;;;;;;6.87;79.43;102251.84;836945;23;1077;-80
2023/05/26 01:51:09;;;;;;;18.98;6.55;;;;;;;6.89;79.57;102255.44;839823;23;1093;-79
2023/05/26 01:51:34;;;;;;;20.63;6.80;;;;;;;6.97;79.38;102269.81;835398;23;1547;-80
2023/05/26 01:52:03;;;;;;;25.13;7.47;;;;;;;6.92;79.63;102266.91;838600;23;1225;-79